Stations météo

réclame
Mon MeteoGroup
Mannheim City Airport, Allemagne (10730): Température de l'air & dewpoint: 17.07.2018 07:00:00 - 23.07.2018 07:00:00 (CEST)Mannheim City Airport, Allemagne (10730): Vitesse du vent: 17.07.2018 07:00:00 - 23.07.2018 07:00:00 (CEST)Mannheim City Airport, Allemagne (10730): Direction du vent: 17.07.2018 07:00:00 - 23.07.2018 07:00:00 (CEST)Mannheim City Airport, Allemagne (10730): visibility: 17.07.2018 07:00:00 - 23.07.2018 07:00:00 (CEST)
Date & Time tt [°C] td [°C] ff [km/h] ff [knt] dd vv [km]
23.07.2018 07:00:00 18,0 18,0 4 2 SSE 3,0
23.07.2018 06:00:00 17,0 17,0 0 0 N 5
23.07.2018 05:00:00 - - - - - -
23.07.2018 04:00:00 - - - - - -
23.07.2018 03:00:00 - - - - - -
23.07.2018 02:00:00 - - - - - -
23.07.2018 01:00:00 - - - - - -
23.07.2018 00:00:00 - - - - - -
22.07.2018 23:00:00 - - - - - -
22.07.2018 22:00:00 - - - - - -
22.07.2018 21:00:00 - - - - - -
22.07.2018 20:00:00 - - - - - -
22.07.2018 19:00:00 20,0 20,0 8 4 E 10
22.07.2018 18:00:00 20,0 20,0 5 3 - 10
22.07.2018 17:00:00 19,0 16,0 35 19 NE 1,1
22.07.2018 16:00:00 27,0 14,0 16 9 WNW 10
22.07.2018 15:00:00 26,0 15,0 9 5 NW 10
22.07.2018 14:00:00 26,0 17,0 9 5 W 10
22.07.2018 13:00:00 24,0 16,0 11 6 NW 10
22.07.2018 12:00:00 23,0 16,0 8 4 NNW 10
22.07.2018 11:00:00 21,0 17,0 8 4 NNE 10
22.07.2018 10:00:00 21,0 16,0 5 3 - 9
22.07.2018 09:00:00 20,0 17,0 4 2 - 10
22.07.2018 08:00:00 19,0 19,0 2 1 - 7
22.07.2018 07:00:00 - - - - - -
22.07.2018 06:00:00 - - - - - -
22.07.2018 05:00:00 - - - - - -
22.07.2018 04:00:00 - - - - - -
22.07.2018 03:00:00 - - - - - -
22.07.2018 02:00:00 - - - - - -
22.07.2018 01:00:00 - - - - - -
22.07.2018 00:00:00 - - - - - -
21.07.2018 23:00:00 - - - - - -
21.07.2018 22:00:00 - - - - - -
21.07.2018 21:00:00 - - - - - -
21.07.2018 20:00:00 - - - - - -
21.07.2018 19:00:00 20,0 20,0 9 5 SW 10
21.07.2018 18:00:00 21,0 19,0 9 5 SW 10
21.07.2018 17:00:00 22,0 15,0 4 2 - 10
21.07.2018 16:00:00 22,0 16,0 8 4 ESE 10
21.07.2018 15:00:00 21,0 18,0 11 6 SE 10
21.07.2018 14:00:00 19,0 19,0 8 4 S 10
21.07.2018 13:00:00 19,0 19,0 8 4 SSW 7
21.07.2018 12:00:00 20,0 18,0 5 3 - 10
21.07.2018 11:00:00 20,0 18,0 9 5 WSW 10
21.07.2018 10:00:00 20,0 16,0 11 6 SW 10
21.07.2018 09:00:00 21,0 16,0 9 5 SSW 10
21.07.2018 08:00:00 21,0 16,0 5 3 - 10
21.07.2018 07:00:00 - - - - - -
21.07.2018 06:00:00 - - - - - -
21.07.2018 05:00:00 - - - - - -
21.07.2018 04:00:00 - - - - - -
21.07.2018 03:00:00 - - - - - -
21.07.2018 02:00:00 - - - - - -
21.07.2018 01:00:00 - - - - - -
21.07.2018 00:00:00 - - - - - -
20.07.2018 23:00:00 - - - - - -
20.07.2018 22:00:00 - - - - - -
20.07.2018 21:00:00 - - - - - -
20.07.2018 20:00:00 30,0 7,0 4 2 - 10
20.07.2018 19:00:00 31,0 7,0 9 5 NW 10
20.07.2018 18:00:00 31,0 8,0 11 6 NW 10
20.07.2018 17:00:00 31,0 8,0 11 6 WNW 10
20.07.2018 16:00:00 32,0 8,0 8 4 - 10
20.07.2018 15:00:00 32,0 8,0 5 3 - 10
20.07.2018 14:00:00 30,0 7,0 5 3 - 10
20.07.2018 13:00:00 29,0 8,0 8 4 - 10
20.07.2018 12:00:00 28,0 9,0 5 3 - 10
20.07.2018 11:00:00 26,0 9,0 4 2 - 10
20.07.2018 10:00:00 24,0 8,0 5 3 - 10
20.07.2018 09:00:00 21,0 10,0 4 2 - 10
20.07.2018 08:00:00 19,0 10,0 8 4 N 10
20.07.2018 07:00:00 17,0 11,0 5 3 NNE 10
20.07.2018 06:00:00 17,0 10,0 4 2 - 10
20.07.2018 05:00:00 - - - - - -
20.07.2018 04:00:00 - - - - - -
20.07.2018 03:00:00 - - - - - -
20.07.2018 02:00:00 - - - - - -
20.07.2018 01:00:00 - - - - - -
20.07.2018 00:00:00 - - - - - -
19.07.2018 23:00:00 - - - - - -
19.07.2018 22:00:00 - - - - - -
19.07.2018 21:00:00 27,0 8,0 9 5 N 10
19.07.2018 20:00:00 28,0 8,0 9 5 N 10
19.07.2018 19:00:00 29,0 8,0 13 7 NW 10
19.07.2018 18:00:00 29,0 8,0 13 7 NW 10
19.07.2018 17:00:00 29,0 9,0 11 6 NW 10
19.07.2018 16:00:00 28,0 8,0 13 7 - 10
19.07.2018 15:00:00 29,0 9,0 15 8 N 10
19.07.2018 14:00:00 28,0 9,0 9 5 - 10
19.07.2018 13:00:00 27,0 9,0 9 5 NW 10
19.07.2018 12:00:00 26,0 9,0 11 6 - 10
19.07.2018 11:00:00 25,0 9,0 4 2 - 10
19.07.2018 10:00:00 24,0 9,0 5 3 - 10
19.07.2018 09:00:00 22,0 10,0 8 4 NNW 10
19.07.2018 08:00:00 20,0 11,0 8 4 N 10
19.07.2018 07:00:00 18,0 10,0 8 4 N 10
19.07.2018 06:00:00 17,0 10,0 9 5 N 10
19.07.2018 05:00:00 - - - - - -
19.07.2018 04:00:00 - - - - - -
19.07.2018 03:00:00 - - - - - -
19.07.2018 02:00:00 - - - - - -
19.07.2018 01:00:00 - - - - - -
19.07.2018 00:00:00 - - - - - -
18.07.2018 23:00:00 - - - - - -
18.07.2018 22:00:00 - - - - - -
18.07.2018 21:00:00 26,0 8,0 11 6 N 10
18.07.2018 20:00:00 27,0 9,0 13 7 N 10
18.07.2018 19:00:00 28,0 8,0 15 8 N 10
18.07.2018 18:00:00 29,0 9,0 9 5 - 10
18.07.2018 17:00:00 28,0 8,0 15 8 N 10
18.07.2018 16:00:00 28,0 9,0 11 6 - 10
18.07.2018 15:00:00 28,0 9,0 13 7 NNW 10
18.07.2018 14:00:00 27,0 9,0 13 7 NNE 10
18.07.2018 13:00:00 26,0 9,0 15 8 WNW 10
18.07.2018 12:00:00 25,0 8,0 13 7 - 10
18.07.2018 11:00:00 25,0 12,0 13 7 NNW 10
18.07.2018 10:00:00 23,0 12,0 9 5 N 10
18.07.2018 09:00:00 22,0 13,0 11 6 N 10
18.07.2018 08:00:00 20,0 13,0 9 5 N 10
18.07.2018 07:00:00 18,0 14,0 8 4 N 10
18.07.2018 06:00:00 18,0 13,0 5 3 - 10
18.07.2018 05:00:00 - - - - - -
18.07.2018 04:00:00 - - - - - -
18.07.2018 03:00:00 - - - - - -
18.07.2018 02:00:00 - - - - - -
18.07.2018 01:00:00 - - - - - -
18.07.2018 00:00:00 - - - - - -
17.07.2018 23:00:00 - - - - - -
17.07.2018 22:00:00 - - - - - -
17.07.2018 21:00:00 26,0 12,0 5 3 - 10
17.07.2018 20:00:00 28,0 11,0 9 5 NW 10
17.07.2018 19:00:00 26,0 13,0 8 4 SW 10
17.07.2018 18:00:00 29,0 12,0 15 8 WSW 10
17.07.2018 17:00:00 29,0 11,0 5 3 - 10
17.07.2018 16:00:00 25,0 15,0 8 4 S 10
17.07.2018 15:00:00 23,0 14,0 15 8 SW 10
17.07.2018 14:00:00 24,0 14,0 22 12 - 10
17.07.2018 13:00:00 29,0 12,0 5 3 - 10
17.07.2018 12:00:00 27,0 12,0 8 4 WNW 10
17.07.2018 11:00:00 25,0 14,0 5 3 - 10
17.07.2018 10:00:00 23,0 15,0 8 4 S 10
17.07.2018 09:00:00 21,0 14,0 8 4 S 10
17.07.2018 08:00:00 20,0 14,0 5 3 - 10
17.07.2018 07:00:00 18,0 15,0 4 2 - 10

tt = Température de l'air
td = dewpoint
ff = Vitesse du vent
dd = Direction du vent
vv = visibility

stations d'obs. à proximité